Time;durP1;ratioP1;P1;durP2;ratioP2;P2;SDS_P1;SDS_P2;PMS_P1;PMS_P2;Temp;Humidity;BMP_temperature;BMP_pressure;BME280_temperature;BME280_humidity;BME280_pressure;Samples;Min_cycle;Max_cycle;Signal;HPM_P1;HPM_P2
2022/10/13 00:02:07;;;;;;;82.18;51.85;;;13.20;99.90;;;;;;5076028;28;20036;-69
2022/10/13 00:04:33;;;;;;;86.38;55.13;;;13.40;99.90;;;;;;5076188;28;20028;-69
2022/10/13 00:06:59;;;;;;;86.20;53.80;;;13.40;99.90;;;;;;5076564;28;20059;-69
2022/10/13 00:09:25;;;;;;;84.70;52.35;;;13.30;99.90;;;;;;5076195;28;20044;-68
2022/10/13 00:11:56;;;;;;;80.35;52.63;;;13.30;99.90;;;;;;5075787;28;20048;-69
2022/10/13 00:14:22;;;;;;;83.82;50.17;;;13.20;99.90;;;;;;5076234;28;20115;-69
2022/10/13 00:16:48;;;;;;;77.40;49.15;;;13.30;99.90;;;;;;5075789;28;20078;-68
2022/10/13 00:19:14;;;;;;;75.85;49.47;;;13.30;99.90;;;;;;5080771;28;20107;-69
2022/10/13 00:21:40;;;;;;;82.25;51.05;;;13.20;99.90;;;;;;5096380;28;20020;-68
2022/10/13 00:24:11;;;;;;;83.20;52.67;;;13.10;99.90;;;;;;5095906;28;20162;-69
2022/10/13 00:26:37;;;;;;;78.32;51.65;;;13.10;99.90;;;;;;5096176;28;20020;-69
2022/10/13 00:29:06;;;;;;;81.38;52.40;;;13.10;99.90;;;;;;5096059;28;20039;-69
2022/10/13 00:31:32;;;;;;;84.70;54.00;;;13.10;99.90;;;;;;5095855;28;20024;-69
2022/10/13 00:33:59;;;;;;;92.43;57.05;;;13.10;99.90;;;;;;5095888;28;20024;-69
2022/10/13 00:36:26;;;;;;;84.47;55.13;;;13.10;99.90;;;;;;5096053;28;20107;-69
2022/10/13 00:38:52;;;;;;;89.43;55.83;;;13.00;99.90;;;;;;5095971;28;20063;-68
2022/10/13 00:41:20;;;;;;;91.10;57.10;;;13.10;99.90;;;;;;5096107;28;20108;-69
2022/10/13 00:43:47;;;;;;;87.38;55.33;;;13.10;99.90;;;;;;5096049;28;20024;-69
2022/10/13 00:46:14;;;;;;;84.75;54.65;;;13.10;99.90;;;;;;5095563;28;20031;-69
2022/10/13 00:48:42;;;;;;;81.82;53.03;;;13.00;99.90;;;;;;5095828;28;20416;-69
2022/10/13 00:51:10;;;;;;;80.97;51.28;;;13.10;99.90;;;;;;5095571;28;20027;-68
2022/10/13 00:53:37;;;;;;;82.25;52.38;;;13.00;99.90;;;;;;5095487;28;20036;-69
2022/10/13 00:56:06;;;;;;;138.35;67.82;;;13.00;99.90;;;;;;5096106;28;20040;-69
2022/10/13 00:58:35;;;;;;;106.35;58.28;;;13.00;99.90;;;;;;5095381;28;20064;-68
2022/10/13 01:01:03;;;;;;;118.97;61.83;;;13.00;99.90;;;;;;5095402;28;20478;-69
2022/10/13 01:03:30;;;;;;;126.32;64.07;;;13.00;99.90;;;;;;5095691;28;20032;-69
2022/10/13 01:05:59;;;;;;;140.35;65.72;;;12.90;99.90;;;;;;5095270;28;20036;-69
2022/10/13 01:08:26;;;;;;;138.90;66.75;;;12.90;99.90;;;;;;5095182;28;20366;-69
2022/10/13 01:11:24;;;;;;;122.93;62.80;;;12.90;99.90;;;;;;5095071;28;20189;-69
2022/10/13 01:14:16;;;;;;;109.82;62.15;;;13.00;99.90;;;;;;5095370;28;20374;-69
2022/10/13 01:17:05;;;;;;;111.88;62.30;;;13.00;99.90;;;;;;5095187;28;20036;-69
2022/10/13 01:19:51;;;;;;;109.63;60.80;;;12.90;99.90;;;;;;5088043;28;20036;-69
2022/10/13 01:22:35;;;;;;;106.80;61.75;;;12.90;99.90;;;;;;5074594;28;20359;-69
2022/10/13 01:25:21;;;;;;;98.38;59.42;;;12.80;99.90;;;;;;5074800;28;20091;-69
2022/10/13 01:28:11;;;;;;;94.22;58.95;;;12.80;99.90;;;;;;5074442;28;20041;-69
2022/10/13 01:30:45;;;;;;;91.10;56.90;;;12.80;99.90;;;;;;5074680;28;20035;-69
2022/10/13 01:33:23;;;;;;;92.30;59.03;;;12.70;99.90;;;;;;5074547;28;20103;-69
2022/10/13 01:36:26;;;;;;;104.28;61.60;;;12.70;99.90;;;;;;5074336;28;20096;-69
2022/10/13 01:39:06;;;;;;;96.55;57.92;;;12.70;99.90;;;;;;5074573;28;20093;-69
2022/10/13 01:41:40;;;;;;;93.32;56.15;;;12.70;99.90;;;;;;5074533;28;20058;-69
2022/10/13 01:44:28;;;;;;;97.72;56.28;;;12.70;99.90;;;;;;5074923;28;20125;-69
2022/10/13 01:46:55;;;;;;;89.63;55.72;;;12.70;99.90;;;;;;5074459;28;20044;-69
2022/10/13 01:49:25;;;;;;;90.85;56.55;;;12.80;99.90;;;;;;5074507;28;20322;-69
2022/10/13 01:51:53;;;;;;;;;;;12.60;99.90;;;;;;5074770;28;20036;-69
2022/10/13 01:54:18;;;;;;;85.65;52.95;;;12.60;99.90;;;;;;5074563;28;19900;-69
2022/10/13 01:56:52;;;;;;;93.63;57.05;;;12.60;99.90;;;;;;5074230;28;20031;-69
2022/10/13 01:59:18;;;;;;;86.50;54.38;;;12.50;99.90;;;;;;5074376;28;20096;-69
2022/10/13 02:02:17;;;;;;;89.97;53.78;;;12.60;99.90;;;;;;5074432;28;20508;-69
2022/10/13 02:04:58;;;;;;;91.13;55.65;;;12.60;99.90;;;;;;5074112;28;20060;-69
2022/10/13 02:07:35;;;;;;;;;;;12.60;99.90;;;;;;5074652;28;20390;-69
2022/10/13 02:10:12;;;;;;;96.82;57.92;;;12.60;99.90;;;;;;5074083;28;19954;-69
2022/10/13 02:13:02;;;;;;;90.75;56.03;;;12.60;99.90;;;;;;5074173;28;20040;-69
2022/10/13 02:15:46;;;;;;;97.03;59.15;;;12.70;99.90;;;;;;5074490;28;20479;-69
2022/10/13 02:18:14;;;;;;;99.53;58.72;;;12.60;99.90;;;;;;5073874;28;20402;-69
2022/10/13 02:20:43;;;;;;;98.20;59.17;;;12.70;99.90;;;;;;5090794;28;20111;-69
2022/10/13 02:23:13;;;;;;;92.18;57.63;;;12.70;99.90;;;;;;5094210;28;20036;-69
2022/10/13 02:25:40;;;;;;;94.90;59.20;;;12.70;99.90;;;;;;5094252;28;20066;-69
2022/10/13 02:28:07;;;;;;;100.20;58.97;;;12.60;99.90;;;;;;5094338;28;20024;-69
2022/10/13 02:30:41;;;;;;;90.60;58.20;;;12.60;99.90;;;;;;5094398;28;20113;-69
2022/10/13 02:33:08;;;;;;;87.55;56.75;;;12.60;99.90;;;;;;5094152;28;20032;-69
2022/10/13 02:35:34;;;;;;;91.78;57.63;;;12.60;99.90;;;;;;5094051;28;20525;-69
2022/10/13 02:38:01;;;;;;;90.32;59.45;;;12.70;99.90;;;;;;5094902;28;20043;-69
2022/10/13 02:40:27;;;;;;;93.32;59.20;;;12.70;99.90;;;;;;5097947;28;20032;-69
2022/10/13 02:42:53;;;;;;;100.93;61.80;;;12.70;99.90;;;;;;5098255;28;20024;-69
2022/10/13 02:45:19;;;;;;;101.18;65.20;;;12.70;99.90;;;;;;5098121;28;20064;-69
2022/10/13 02:47:45;;;;;;;102.60;63.53;;;12.70;99.90;;;;;;5098162;28;20039;-69
2022/10/13 02:50:11;;;;;;;99.32;64.75;;;12.70;99.90;;;;;;5097945;28;20059;-69
2022/10/13 02:52:37;;;;;;;98.78;62.58;;;12.80;99.90;;;;;;5098080;28;20036;-69
2022/10/13 02:55:04;;;;;;;94.85;60.53;;;12.90;99.90;;;;;;5097917;28;20051;-69
2022/10/13 02:57:30;;;;;;;95.38;59.63;;;12.80;99.90;;;;;;5097890;28;20028;-69
2022/10/13 02:59:56;;;;;;;93.55;58.78;;;12.80;99.90;;;;;;5097695;28;20043;-69
2022/10/13 03:02:25;;;;;;;89.97;57.15;;;12.80;99.90;;;;;;5097789;28;20032;-69
2022/10/13 03:04:52;;;;;;;95.15;57.95;;;12.80;99.90;;;;;;5097701;28;20154;-69
2022/10/13 03:07:17;;;;;;;95.15;58.25;;;12.80;99.90;;;;;;5097719;28;20416;-69
2022/10/13 03:09:43;;;;;;;96.65;58.15;;;12.90;99.90;;;;;;5097571;28;20038;-69
2022/10/13 03:12:09;;;;;;;95.25;58.17;;;12.90;99.90;;;;;;5097538;28;20032;-69
2022/10/13 03:14:36;;;;;;;93.20;57.85;;;13.00;99.90;;;;;;5097502;28;20111;-69
2022/10/13 03:17:02;;;;;;;89.50;57.45;;;13.00;99.90;;;;;;5097350;28;20463;-69
2022/10/13 03:19:28;;;;;;;95.13;56.25;;;12.90;99.90;;;;;;5090817;28;20024;-69
2022/10/13 03:21:54;;;;;;;89.95;55.50;;;12.90;99.90;;;;;;5076926;28;20032;-69
2022/10/13 03:24:20;;;;;;;89.00;56.00;;;12.80;99.90;;;;;;5077027;28;20466;-69
2022/10/13 03:26:46;;;;;;;85.70;56.22;;;12.90;99.90;;;;;;5077164;28;20028;-69
2022/10/13 03:29:14;;;;;;;89.43;55.10;;;12.90;99.90;;;;;;5076741;28;20082;-71
2022/10/13 03:31:41;;;;;;;84.72;52.03;;;12.80;99.90;;;;;;5077020;28;20020;-71
2022/10/13 03:34:08;;;;;;;78.03;52.03;;;12.90;99.90;;;;;;5076651;28;20039;-71
2022/10/13 03:36:34;;;;;;;82.88;52.05;;;13.00;99.90;;;;;;5076787;28;20163;-71
2022/10/13 03:39:00;;;;;;;78.25;52.35;;;13.00;99.90;;;;;;5076996;28;20130;-71
2022/10/13 03:41:26;;;;;;;84.50;52.92;;;12.90;99.90;;;;;;5076849;28;20386;-71
2022/10/13 03:43:51;;;;;;;81.07;51.60;;;12.90;99.90;;;;;;5076725;28;20405;-71
2022/10/13 03:46:18;;;;;;;77.10;50.85;;;12.90;99.90;;;;;;5076611;28;20055;-71
2022/10/13 03:48:45;;;;;;;81.60;52.42;;;12.90;99.90;;;;;;5076200;28;20033;-71
2022/10/13 03:51:14;;;;;;;79.43;51.70;;;12.90;99.90;;;;;;5076726;28;20028;-71
2022/10/13 03:53:44;;;;;;;77.82;51.63;;;12.90;99.90;;;;;;5076600;28;20125;-71
2022/10/13 03:56:16;;;;;;;85.80;52.28;;;12.90;99.90;;;;;;5076585;28;20032;-71
2022/10/13 03:58:54;;;;;;;89.03;54.08;;;12.90;99.90;;;;;;5076331;28;20097;-71
2022/10/13 04:01:21;;;;;;;91.55;54.95;;;12.90;99.90;;;;;;5076420;28;20028;-71
2022/10/13 04:03:48;;;;;;;86.40;55.13;;;12.80;99.90;;;;;;5076464;28;20043;-71
2022/10/13 04:06:14;;;;;;;82.68;53.15;;;12.80;99.90;;;;;;5076253;28;20021;-71
2022/10/13 04:08:40;;;;;;;86.95;54.60;;;12.80;99.90;;;;;;5076287;28;20032;-71
2022/10/13 04:11:10;;;;;;;89.55;54.25;;;12.80;99.90;;;;;;5076146;28;20029;-71
2022/10/13 04:13:39;;;;;;;86.50;53.30;;;12.80;99.90;;;;;;5076252;28;20039;-71
2022/10/13 04:16:08;;;;;;;83.82;55.63;;;12.80;99.90;;;;;;5076128;28;20111;-71
2022/10/13 04:18:34;;;;;;;79.15;52.13;;;12.80;99.90;;;;;;5075721;28;20441;-71
2022/10/13 04:21:00;;;;;;;89.30;53.72;;;12.80;99.90;;;;;;5095504;28;20032;-71
2022/10/13 04:23:26;;;;;;;82.68;53.10;;;12.70;99.90;;;;;;5096014;28;20130;-71
2022/10/13 04:25:52;;;;;;;79.70;51.65;;;12.70;99.90;;;;;;5096296;28;20090;-71
2022/10/13 04:28:18;;;;;;;82.28;53.15;;;12.70;99.90;;;;;;5096037;28;20035;-71
2022/10/13 04:30:44;;;;;;;81.78;53.80;;;12.70;99.90;;;;;;5096118;28;20401;-71
2022/10/13 04:33:10;;;;;;;85.30;52.97;;;12.60;99.90;;;;;;5095809;28;20087;-71
2022/10/13 04:35:40;;;;;;;78.38;51.80;;;12.60;99.90;;;;;;5095943;28;20032;-71
2022/10/13 04:38:06;;;;;;;75.03;52.78;;;12.60;99.90;;;;;;5095906;28;20032;-71
2022/10/13 04:40:32;;;;;;;84.13;53.05;;;12.70;99.90;;;;;;5095550;28;20024;-71
2022/10/13 04:42:58;;;;;;;83.13;51.13;;;12.60;99.90;;;;;;5095916;28;20024;-71
2022/10/13 04:45:25;;;;;;;83.28;54.17;;;12.70;99.90;;;;;;5095811;28;20359;-72
2022/10/13 04:47:51;;;;;;;78.10;52.63;;;12.60;99.90;;;;;;5095311;28;20409;-71
2022/10/13 04:50:21;;;;;;;84.30;53.50;;;12.70;99.90;;;;;;5095856;28;20028;-72
2022/10/13 04:52:58;;;;;;;84.65;51.70;;;12.70;99.90;;;;;;5095458;28;20028;-71
2022/10/13 04:55:24;;;;;;;101.20;56.13;;;12.70;99.90;;;;;;5095434;28;20374;-71
2022/10/13 04:57:50;;;;;;;84.43;53.67;;;12.80;99.90;;;;;;5095525;28;20032;-71
2022/10/13 05:00:16;;;;;;;94.95;56.95;;;12.80;99.90;;;;;;5094795;28;20032;-72
2022/10/13 05:02:42;;;;;;;89.25;56.97;;;12.90;99.90;;;;;;5094998;28;20099;-70
2022/10/13 05:05:09;;;;;;;85.32;55.90;;;12.80;99.90;;;;;;5095509;28;20028;-69
2022/10/13 05:07:35;;;;;;;91.40;59.00;;;12.90;99.90;;;;;;5095152;28;20055;-69
2022/10/13 05:10:01;;;;;;;103.90;63.67;;;12.90;99.90;;;;;;5095186;28;20032;-69
2022/10/13 05:12:27;;;;;;;94.53;57.53;;;12.90;99.90;;;;;;5095092;28;20032;-69
2022/10/13 05:14:53;;;;;;;90.07;56.35;;;12.90;99.90;;;;;;5095017;28;20024;-69
2022/10/13 05:17:19;;;;;;;96.75;56.25;;;12.90;99.90;;;;;;5095068;28;20055;-69
2022/10/13 05:19:44;;;;;;;91.38;56.35;;;12.80;99.90;;;;;;5086053;28;20025;-70
2022/10/13 05:22:10;;;;;;;93.70;61.35;;;12.90;99.90;;;;;;5068859;28;20035;-69
2022/10/13 05:24:40;;;;;;;107.07;69.13;;;13.00;99.90;;;;;;5075440;28;20032;-69
2022/10/13 05:27:10;;;;;;;103.95;64.15;;;13.00;99.90;;;;;;5073247;28;20043;-69
2022/10/13 05:29:36;;;;;;;103.30;62.42;;;13.00;99.90;;;;;;5072344;28;20115;-70
2022/10/13 05:32:03;;;;;;;90.68;57.40;;;13.00;99.90;;;;;;5073903;28;20364;-69
2022/10/13 05:34:29;;;;;;;88.82;55.63;;;13.00;99.90;;;;;;5073938;28;20062;-69
2022/10/13 05:36:55;;;;;;;85.68;53.58;;;13.00;99.90;;;;;;5073950;28;20036;-70
2022/10/13 05:39:21;;;;;;;87.13;53.22;;;13.10;99.90;;;;;;5074423;28;20099;-70
2022/10/13 05:41:47;;;;;;;105.63;57.13;;;13.10;99.90;;;;;;5074516;28;20024;-70
2022/10/13 05:44:20;;;;;;;113.88;59.03;;;13.20;99.90;;;;;;5072693;28;20131;-70
2022/10/13 05:46:52;;;;;;;115.85;59.70;;;13.20;99.90;;;;;;5074764;28;20058;-70
2022/10/13 05:49:18;;;;;;;111.07;59.05;;;13.30;99.90;;;;;;5074968;28;20447;-70
2022/10/13 05:51:50;;;;;;;115.80;59.65;;;13.30;99.90;;;;;;5075104;28;20038;-70
2022/10/13 05:54:29;;;;;;;113.43;59.03;;;13.40;99.90;;;;;;5074839;28;20017;-70
2022/10/13 05:57:17;;;;;;;112.35;58.38;;;13.30;99.90;;;;;;5073949;28;20036;-70
2022/10/13 05:59:52;;;;;;;128.30;61.70;;;13.40;99.90;;;;;;5073979;28;20536;-70
2022/10/13 06:02:21;;;;;;;178.63;70.30;;;13.50;99.90;;;;;;5074402;28;20025;-70
2022/10/13 06:04:51;;;;;;;173.98;73.55;;;13.50;99.90;;;;;;5074080;28;20027;-70
2022/10/13 06:07:17;;;;;;;189.43;73.03;;;13.60;99.90;;;;;;5074057;28;20036;-70
2022/10/13 06:09:43;;;;;;;211.43;76.15;;;13.60;99.90;;;;;;5074005;28;20486;-70
2022/10/13 06:12:09;;;;;;;231.85;79.65;;;13.60;99.90;;;;;;5071455;28;20044;-70
2022/10/13 06:14:36;;;;;;;227.13;76.60;;;13.70;99.90;;;;;;5075098;28;20028;-70
2022/10/13 06:17:05;;;;;;;226.70;78.50;;;13.80;99.90;;;;;;5069572;28;20027;-68
2022/10/13 06:19:31;;;;;;;355.65;107.47;;;13.90;99.90;;;;;;5084612;28;20469;-71
2022/10/13 06:22:05;;;;;;;381.05;110.35;;;13.90;99.90;;;;;;5089674;28;20035;-71
2022/10/13 06:24:31;;;;;;;596.13;160.55;;;14.00;99.90;;;;;;5076157;28;20033;-71
2022/10/13 06:26:57;;;;;;;338.05;103.18;;;14.10;99.90;;;;;;5068589;28;20025;-71
2022/10/13 06:29:23;;;;;;;315.30;97.60;;;14.10;99.90;;;;;;5073901;28;20537;-71
2022/10/13 06:31:49;;;;;;;303.38;97.32;;;14.10;99.90;;;;;;5077479;28;20024;-71
2022/10/13 06:34:14;;;;;;;322.73;103.72;;;14.20;99.90;;;;;;5075999;28;20074;-71
2022/10/13 06:36:43;;;;;;;317.75;100.43;;;14.20;99.90;;;;;;5077489;28;20021;-71
2022/10/13 06:39:10;;;;;;;349.90;108.88;;;14.20;99.90;;;;;;5075856;28;20440;-71
2022/10/13 06:41:36;;;;;;;307.13;103.45;;;14.20;99.90;;;;;;5077782;28;20230;-71
2022/10/13 06:44:02;;;;;;;356.55;110.20;;;14.30;99.90;;;;;;5076840;28;20044;-71
2022/10/13 06:46:28;;;;;;;353.63;110.13;;;14.30;99.90;;;;;;5077130;28;20095;-71
2022/10/13 06:48:54;;;;;;;299.15;102.20;;;14.30;99.90;;;;;;5077128;28;20537;-71
2022/10/13 06:51:20;;;;;;;320.23;105.10;;;14.30;99.90;;;;;;5077378;28;20025;-71
2022/10/13 06:53:48;;;;;;;321.48;108.88;;;14.30;99.90;;;;;;5077489;28;20470;-71
2022/10/13 06:56:14;;;;;;;337.45;107.20;;;14.30;99.90;;;;;;5077313;28;20110;-71
2022/10/13 06:58:40;;;;;;;350.65;115.57;;;14.50;99.90;;;;;;5077076;28;20154;-71
2022/10/13 07:01:06;;;;;;;349.20;117.15;;;14.50;99.90;;;;;;5077299;28;20502;-71
2022/10/13 07:03:32;;;;;;;337.73;107.80;;;14.60;99.90;;;;;;5077326;28;20020;-71
2022/10/13 07:06:03;;;;;;;330.88;112.90;;;14.60;99.90;;;;;;5077283;28;20036;-71
2022/10/13 07:08:30;;;;;;;;;;;14.50;99.90;;;;;;5078082;28;20138;-71
2022/10/13 07:10:56;;;;;;;335.02;106.20;;;14.60;99.90;;;;;;5077804;28;20559;-71
2022/10/13 07:13:22;;;;;;;317.50;103.03;;;14.50;99.90;;;;;;5078025;28;20098;-71
2022/10/13 07:15:48;;;;;;;318.83;108.32;;;14.60;99.90;;;;;;5075958;28;20603;-71
2022/10/13 07:18:14;;;;;;;327.48;105.68;;;14.60;99.90;;;;;;5077627;28;20048;-68
2022/10/13 07:20:40;;;;;;;351.25;108.30;;;14.70;99.90;;;;;;5094093;28;20059;-71
2022/10/13 07:23:06;;;;;;;353.42;113.03;;;14.80;99.90;;;;;;5093932;28;20109;-71
2022/10/13 07:25:32;;;;;;;369.70;116.85;;;14.90;99.90;;;;;;5075810;28;20028;-71
2022/10/13 07:27:58;;;;;;;345.20;106.35;;;14.90;99.90;;;;;;5076688;28;20090;-73
2022/10/13 07:30:25;;;;;;;343.02;112.13;;;14.90;99.90;;;;;;5076094;28;20572;-73
2022/10/13 07:32:51;;;;;;;397.65;125.68;;;15.00;99.90;;;;;;5076452;28;20028;-73
2022/10/13 07:35:17;;;;;;;402.65;123.35;;;14.90;99.90;;;;;;5076849;28;20043;-73
2022/10/13 07:37:43;;;;;;;383.58;118.80;;;14.90;99.90;;;;;;5076300;28;20035;-73
2022/10/13 07:40:09;;;;;;;375.30;122.50;;;15.00;99.90;;;;;;5076704;28;20599;-73
2022/10/13 07:42:35;;;;;;;370.75;121.88;;;15.00;99.90;;;;;;5076745;28;20017;-73
2022/10/13 07:45:01;;;;;;;352.02;115.47;;;15.00;99.90;;;;;;5076360;28;20047;-73
2022/10/13 07:47:28;;;;;;;351.13;118.25;;;15.00;99.90;;;;;;5076507;28;20071;-73
2022/10/13 07:49:54;;;;;;;357.20;122.00;;;15.00;99.90;;;;;;5076428;28;20110;-73
2022/10/13 07:52:20;;;;;;;345.70;113.68;;;15.00;99.90;;;;;;5075926;28;20502;-73
2022/10/13 07:54:46;;;;;;;350.92;114.97;;;15.20;99.90;;;;;;5076433;28;20107;-73
2022/10/13 07:57:14;;;;;;;352.67;119.70;;;15.20;99.90;;;;;;5076350;28;20031;-73
2022/10/13 07:59:40;;;;;;;350.20;120.40;;;15.20;99.90;;;;;;5076633;28;20037;-73
2022/10/13 08:02:09;;;;;;;340.30;121.40;;;15.10;99.90;;;;;;5076785;28;20474;-73
2022/10/13 08:04:38;;;;;;;328.00;110.50;;;15.30;99.90;;;;;;5076238;28;20025;-73
2022/10/13 08:07:05;;;;;;;311.00;106.32;;;15.30;99.90;;;;;;5075332;28;20055;-73
2022/10/13 08:09:31;;;;;;;321.58;103.75;;;15.40;99.90;;;;;;5072486;28;20025;-73
2022/10/13 08:11:57;;;;;;;315.05;103.63;;;15.50;99.90;;;;;;5075043;28;20066;-71
2022/10/13 08:14:23;;;;;;;315.05;110.45;;;15.40;99.90;;;;;;5075263;28;20020;-72
2022/10/13 08:16:49;;;;;;;318.67;108.18;;;15.50;99.90;;;;;;5075331;28;20035;-71
2022/10/13 08:19:20;;;;;;;336.50;110.55;;;15.60;99.90;;;;;;5079878;28;20028;-72
2022/10/13 08:21:50;;;;;;;330.52;109.47;;;15.60;99.90;;;;;;5079065;28;20028;-72
2022/10/13 08:24:17;;;;;;;350.05;109.90;;;15.50;99.90;;;;;;5075769;28;20088;-72
2022/10/13 08:26:44;;;;;;;354.15;112.28;;;15.50;99.90;;;;;;5068849;28;20036;-72
2022/10/13 08:29:13;;;;;;;344.83;111.18;;;15.50;99.90;;;;;;5064882;28;20021;-72
2022/10/13 08:31:40;;;;;;;328.05;111.10;;;15.40;99.90;;;;;;5065451;28;20040;-72
2022/10/13 08:34:07;;;;;;;313.20;105.43;;;15.50;99.90;;;;;;5060089;28;20017;-72
2022/10/13 08:36:33;;;;;;;317.35;108.15;;;15.70;99.90;;;;;;5071309;28;20093;-71
2022/10/13 08:38:59;;;;;;;320.95;108.55;;;15.70;99.90;;;;;;5072824;28;20029;-71
2022/10/13 08:41:27;;;;;;;349.60;114.25;;;15.60;99.90;;;;;;5072234;28;20470;-71
2022/10/13 08:44:09;;;;;;;324.63;109.22;;;15.70;99.90;;;;;;5055567;28;20036;-71
2022/10/13 08:47:00;;;;;;;338.50;109.43;;;15.70;99.90;;;;;;5057276;28;20076;-71
2022/10/13 08:49:26;;;;;;;334.30;108.35;;;15.70;99.90;;;;;;5063094;28;20149;-71
2022/10/13 08:51:53;;;;;;;326.83;112.80;;;15.80;99.90;;;;;;5066341;28;20035;-70
2022/10/13 08:54:23;;;;;;;290.38;105.78;;;16.00;99.90;;;;;;5071234;28;20035;-71
2022/10/13 08:56:50;;;;;;;313.85;108.97;;;16.10;99.90;;;;;;5065012;28;20109;-71
2022/10/13 08:59:17;;;;;;;312.33;105.85;;;16.20;99.90;;;;;;5061801;28;20028;-71
2022/10/13 09:01:48;;;;;;;295.52;104.88;;;16.30;99.90;;;;;;5062755;28;20025;-71
2022/10/13 09:04:38;;;;;;;295.63;105.60;;;16.40;99.90;;;;;;5060784;28;20563;-70
2022/10/13 09:07:27;;;;;;;289.87;104.40;;;16.50;99.90;;;;;;5062075;28;20479;-70
2022/10/13 09:09:54;;;;;;;293.30;106.43;;;16.60;99.90;;;;;;5063974;28;20707;-71
2022/10/13 09:12:26;;;;;;;301.50;106.43;;;16.50;99.90;;;;;;5062648;28;20032;-71
2022/10/13 09:15:10;;;;;;;306.98;107.18;;;16.40;99.90;;;;;;5072143;28;20382;-71
2022/10/13 09:17:39;;;;;;;283.55;102.18;;;16.50;99.90;;;;;;5074252;28;20119;-71
2022/10/13 09:20:21;;;;;;;265.20;100.32;;;16.40;99.90;;;;;;5084654;28;20028;-70
2022/10/13 09:23:06;;;;;;;260.98;100.43;;;16.60;99.90;;;;;;5071710;28;20024;-71
2022/10/13 09:25:43;;;;;;;251.60;100.78;;;16.70;99.90;;;;;;5072414;28;20024;-70
2022/10/13 09:28:31;;;;;;;251.27;99.45;;;16.90;99.90;;;;;;5073035;28;20032;-71
2022/10/13 09:31:05;;;;;;;234.73;96.03;;;16.90;99.90;;;;;;5072865;28;20068;-70
2022/10/13 09:33:36;;;;;;;232.95;94.78;;;17.10;99.90;;;;;;5074043;28;20024;-71
2022/10/13 09:36:02;;;;;;;262.00;101.18;;;17.20;99.90;;;;;;5072724;28;20082;-71
2022/10/13 09:38:28;;;;;;;310.80;110.88;;;17.20;99.90;;;;;;5073478;28;20406;-71
2022/10/13 09:41:11;;;;;;;287.20;106.95;;;17.20;99.90;;;;;;5067949;28;20685;-71
2022/10/13 09:43:40;;;;;;;300.35;106.85;;;17.30;99.90;;;;;;5065173;28;20029;-71
2022/10/13 09:46:29;;;;;;;303.75;107.82;;;17.40;99.90;;;;;;5063087;28;20644;-71
2022/10/13 09:49:22;;;;;;;304.77;109.88;;;17.40;99.90;;;;;;5061668;28;20038;-71
2022/10/13 09:51:48;;;;;;;315.95;111.25;;;17.60;99.90;;;;;;5065526;28;20084;-71
2022/10/13 09:54:34;;;;;;;300.45;108.93;;;17.70;99.90;;;;;;5061772;28;20047;-71
2022/10/13 09:57:08;;;;;;;315.97;114.07;;;17.80;99.90;;;;;;5068853;28;20084;-71
2022/10/13 09:59:38;;;;;;;316.80;109.57;;;17.80;99.90;;;;;;5073553;28;20250;-71
2022/10/13 10:02:32;;;;;;;281.08;106.07;;;17.70;99.90;;;;;;5073865;28;20012;-71
2022/10/13 10:05:05;;;;;;;277.02;104.97;;;17.80;99.90;;;;;;5073618;28;20040;-71
2022/10/13 10:07:32;;;;;;;317.55;107.32;;;17.90;99.90;;;;;;5072582;28;20032;-71
2022/10/13 10:10:32;;;;;;;321.73;107.15;;;18.00;99.90;;;;;;5063470;28;20029;-71
2022/10/13 10:13:02;;;;;;;293.05;106.13;;;17.80;99.90;;;;;;5055896;28;20056;-70
2022/10/13 10:15:43;;;;;;;295.60;102.72;;;18.00;99.90;;;;;;5066845;28;21300;-71
2022/10/13 10:18:24;;;;;;;307.65;110.78;;;18.00;99.90;;;;;;5067119;28;20043;-70
2022/10/13 10:21:18;;;;;;;293.23;105.80;;;18.10;99.90;;;;;;5065865;28;20378;-71
2022/10/13 10:23:50;;;;;;;285.80;104.68;;;18.20;99.90;;;;;;5066893;28;20103;-72
2022/10/13 10:26:43;;;;;;;286.00;105.13;;;18.20;99.90;;;;;;5063051;28;20116;-72
2022/10/13 10:29:23;;;;;;;292.90;107.57;;;18.30;99.90;;;;;;5059998;28;20037;-72
2022/10/13 10:32:03;;;;;;;300.98;105.43;;;18.40;99.90;;;;;;5057119;28;20386;-71
2022/10/13 10:34:38;;;;;;;;;;;18.40;99.90;;;;;;5060182;28;20043;-71
2022/10/13 10:37:25;;;;;;;303.85;108.88;;;18.30;99.90;;;;;;5062974;28;19919;-74
2022/10/13 10:40:23;;;;;;;297.05;109.03;;;18.40;99.90;;;;;;5066210;28;20025;-73
2022/10/13 10:43:08;;;;;;;304.65;106.50;;;18.50;99.90;;;;;;5073417;28;20112;-74
2022/10/13 10:45:37;;;;;;;306.20;110.25;;;18.80;99.90;;;;;;5074098;28;20275;-74
2022/10/13 10:48:17;;;;;;;290.05;104.97;;;19.40;99.90;;;;;;5073422;28;20048;-74
2022/10/13 10:50:43;;;;;;;264.03;101.90;;;19.90;99.90;;;;;;5073978;28;20024;-74
2022/10/13 10:53:25;;;;;;;265.10;102.20;;;20.20;99.90;;;;;;5073535;28;20566;-74
2022/10/13 10:55:59;;;;;;;244.65;95.68;;;20.60;99.90;;;;;;5073438;28;20025;-74
2022/10/13 10:58:43;;;;;;;236.90;94.13;;;21.00;99.90;;;;;;5073256;28;20039;-74
2022/10/13 11:01:32;;;;;;;193.25;83.05;;;21.30;99.90;;;;;;5076878;28;20021;-74
2022/10/13 11:04:19;;;;;;;181.77;79.50;;;21.80;99.90;;;;;;5066430;28;20036;-75
2022/10/13 11:06:45;;;;;;;190.95;86.38;;;22.10;99.90;;;;;;5065394;28;20025;-74
2022/10/13 11:09:11;;;;;;;196.25;79.60;;;22.10;98.80;;;;;;5065366;28;20040;-74
2022/10/13 11:11:39;;;;;;;176.85;77.55;;;22.30;99.50;;;;;;5056966;28;20065;-74
2022/10/13 11:14:27;;;;;;;156.55;76.50;;;22.40;97.20;;;;;;5058411;28;20037;-74
2022/10/13 11:17:06;;;;;;;158.10;73.50;;;22.30;97.70;;;;;;5063090;28;20091;-73
2022/10/13 11:19:38;;;;;;;144.95;68.43;;;22.30;96.00;;;;;;5039942;28;20021;-73
2022/10/13 11:22:04;;;;;;;162.75;69.78;;;22.70;96.50;;;;;;5045623;28;20057;-73
2022/10/13 11:24:37;;;;;;;153.13;72.88;;;22.90;95.30;;;;;;5038793;28;20013;-72
2022/10/13 11:27:15;;;;;;;138.45;68.07;;;23.20;93.30;;;;;;5045536;28;20063;-72
2022/10/13 11:29:53;;;;;;;131.32;65.80;;;23.20;91.30;;;;;;5038970;28;20025;-72
2022/10/13 11:32:25;;;;;;;196.93;77.50;;;23.40;91.90;;;;;;5047537;28;20056;-72
2022/10/13 11:35:13;;;;;;;135.20;67.43;;;23.70;89.90;;;;;;5043208;28;20021;-72
2022/10/13 11:37:55;;;;;;;145.40;70.53;;;23.60;84.60;;;;;;5042922;28;20392;-72
2022/10/13 11:40:39;;;;;;;126.40;61.03;;;23.40;87.30;;;;;;5044877;28;20025;-72
2022/10/13 11:43:13;;;;;;;119.55;62.00;;;23.60;84.80;;;;;;5040097;28;20051;-72
2022/10/13 11:45:48;;;;;;;119.00;60.60;;;23.30;83.10;;;;;;5043287;28;20523;-70
2022/10/13 11:48:46;;;;;;;107.25;57.75;;;22.30;90.60;;;;;;5042332;28;20036;-70
2022/10/13 11:51:29;;;;;;;112.57;57.78;;;22.70;88.70;;;;;;5045088;28;20029;-69
2022/10/13 11:54:07;;;;;;;110.05;58.30;;;23.30;88.60;;;;;;5038358;28;20037;-69
2022/10/13 11:56:42;;;;;;;117.22;56.70;;;23.80;88.30;;;;;;5047030;28;20017;-70
2022/10/13 11:59:25;;;;;;;104.60;56.13;;;24.10;82.00;;;;;;5047627;28;20044;-69
2022/10/13 12:02:15;;;;;;;105.00;55.85;;;23.70;81.30;;;;;;5076134;28;20082;-72
2022/10/13 12:04:41;;;;;;;;;;;22.60;85.20;;;;;;5061208;28;20047;-70
2022/10/13 12:07:10;;;;;;;104.95;56.70;;;23.00;89.70;;;;;;5049449;28;19931;-70
2022/10/13 12:10:13;;;;;;;110.18;56.13;;;23.00;87.00;;;;;;5038954;28;20057;-69
2022/10/13 12:12:47;;;;;;;95.93;51.67;;;23.20;86.30;;;;;;5027701;28;20479;-70
2022/10/13 12:15:48;;;;;;;117.85;59.95;;;23.10;84.00;;;;;;5034222;28;20152;-69
2022/10/13 12:18:32;;;;;;;87.05;53.15;;;23.10;84.90;;;;;;5014651;28;20051;-69
2022/10/13 12:21:02;;;;;;;93.03;53.17;;;22.70;85.10;;;;;;5056527;28;20060;-69
2022/10/13 12:23:29;;;;;;;100.57;55.28;;;22.90;85.30;;;;;;5055704;28;20034;-69
2022/10/13 12:25:57;;;;;;;98.20;52.83;;;23.10;87.10;;;;;;5046672;28;20029;-69
2022/10/13 12:28:29;;;;;;;86.10;49.55;;;23.20;83.70;;;;;;5035396;28;20036;-69
2022/10/13 12:31:01;;;;;;;88.28;52.90;;;23.30;85.20;;;;;;5035641;28;20042;-69
2022/10/13 12:33:28;;;;;;;94.53;54.00;;;23.30;84.50;;;;;;5035585;28;20026;-69
2022/10/13 12:35:55;;;;;;;95.55;54.65;;;23.10;81.90;;;;;;5035295;28;20388;-69
2022/10/13 12:38:22;;;;;;;105.43;56.47;;;23.40;83.10;;;;;;5035332;28;20387;-69
2022/10/13 12:40:52;;;;;;;94.38;54.67;;;23.60;83.00;;;;;;5035624;28;20037;-69
2022/10/13 12:43:24;;;;;;;87.75;51.10;;;23.60;85.10;;;;;;5035373;28;20025;-69